Time;durP1;ratioP1;P1;durP2;ratioP2;P2;SDS_P1;SDS_P2;PMS_P1;PMS_P2;Temp;Humidity;BMP_temperature;BMP_pressure;BME280_temperature;BME280_humidity;BME280_pressure;Samples;Min_cycle;Max_cycle;Signal;HPM_P1;HPM_P2
2022/08/04 00:01:55;;;;;;;;;3.50;3.50;;;;;29.52;40.05;100798.38;5056040;28;45423;-66
2022/08/04 00:04:58;;;;;;;;;2.75;2.25;;;;;29.55;39.34;100803.56;5053256;28;46454;-65
2022/08/04 00:07:38;;;;;;;;;2.20;2.00;;;;;29.56;39.53;100798.03;5013365;28;45416;-66
2022/08/04 00:10:06;;;;;;;;;1.50;1.50;;;;;29.46;40.06;100794.34;5053373;28;45545;-65
2022/08/04 00:12:36;;;;;;;;;2.25;2.25;;;;;29.38;39.82;100791.38;5055138;28;45741;-65
2022/08/04 00:15:04;;;;;;;;;1.75;1.75;;;;;29.34;39.87;100795.28;5057544;28;45465;-66
2022/08/04 00:17:38;;;;;;;;;2.40;2.40;;;;;29.35;39.87;100786.19;5056467;28;45937;-66
2022/08/04 00:20:05;;;;;;;;;2.25;2.25;;;;;29.39;39.67;100783.16;5039835;28;45486;-66
2022/08/04 00:22:33;;;;;;;;;3.75;2.50;;;;;29.23;39.97;100784.44;5039190;28;45598;-65
2022/08/04 00:25:02;;;;;;;;;3.25;3.25;;;;;29.10;40.01;100774.56;5055688;28;45511;-66
2022/08/04 00:27:32;;;;;;;;;2.00;2.00;;;;;29.15;40.08;100793.13;5055230;28;45314;-66
2022/08/04 00:29:58;;;;;;;;;3.00;3.00;;;;;29.14;40.03;100791.41;5054377;28;45461;-65
2022/08/04 00:32:27;;;;;;;;;1.50;1.50;;;;;29.15;39.80;100788.56;5053537;28;45474;-66
2022/08/04 00:34:56;;;;;;;;;3.00;2.00;;;;;29.29;39.70;100786.69;5052931;28;45470;-66
2022/08/04 00:37:23;;;;;;;;;2.00;2.00;;;;;29.33;39.41;100780.09;5035852;28;45488;-66
2022/08/04 00:39:52;;;;;;;;;2.00;2.00;;;;;29.43;38.96;100789.19;5053459;28;45434;-66
2022/08/04 00:42:42;;;;;;;;;1.50;1.50;;;;;29.47;39.27;100784.41;5035719;28;45435;-66
2022/08/04 00:45:43;;;;;;;;;2.00;2.00;;;;;29.50;38.96;100790.44;5035098;28;46830;-65
2022/08/04 00:48:29;;;;;;;;;1.40;1.40;;;;;29.53;39.05;100792.88;5053074;28;45384;-65
2022/08/04 00:51:16;;;;;;;;;1.50;1.50;;;;;29.56;38.72;100794.50;5052769;28;45808;-65
2022/08/04 00:54:01;;;;;;;;;1.00;1.00;;;;;29.55;38.89;100799.03;5053215;28;45423;-66
2022/08/04 00:56:59;;;;;;;;;2.00;2.00;;;;;29.56;38.57;100791.78;5053438;28;45456;-66
2022/08/04 00:59:36;;;;;;;;;1.00;1.00;;;;;29.56;38.72;100787.25;5052874;28;45777;-65
2022/08/04 01:02:23;;;;;;;;;1.00;1.00;;;;;29.58;38.76;100788.00;5052888;28;45341;-66
2022/08/04 01:05:12;;;;;;;;;1.00;1.00;;;;;29.63;38.57;100792.19;5055081;28;45371;-65
2022/08/04 01:08:05;;;;;;;;;1.00;1.00;;;;;29.62;38.31;100788.63;5056427;28;46184;-65
2022/08/04 01:10:48;;;;;;;;;3.00;1.20;;;;;29.59;38.49;100773.53;5041984;28;46893;-66
2022/08/04 01:13:36;;;;;;;;;1.00;1.00;;;;;29.65;38.79;100779.44;5059865;28;45357;-65
2022/08/04 01:16:04;;;;;;;;;2.00;2.00;;;;;29.64;38.75;100778.59;5056597;28;45454;-64
2022/08/04 01:18:51;;;;;;;;;1.75;1.75;;;;;29.65;38.74;100777.59;5056289;28;46579;-66
2022/08/04 01:21:29;;;;;;;;;1.00;1.00;;;;;29.66;38.51;100781.13;5056172;28;45375;-65
2022/08/04 01:24:23;;;;;;;;;1.00;1.00;;;;;29.66;38.79;100784.72;5056153;28;45754;-65
2022/08/04 01:27:05;;;;;;;;;1.00;1.00;;;;;29.63;38.48;100779.53;5056290;28;45555;-64
2022/08/04 01:29:45;;;;;;;;;1.50;1.50;;;;;29.63;38.91;100778.69;5055978;28;45756;-65
2022/08/04 01:32:36;;;;;;;;;2.00;1.00;;;;;29.63;39.08;100781.38;5055868;28;45447;-66
2022/08/04 01:35:15;;;;;;;;;2.00;1.80;;;;;29.60;38.98;100791.44;5055720;28;45437;-65
2022/08/04 01:38:05;;;;;;;;;1.25;1.25;;;;;29.58;39.58;100776.34;5054762;28;45588;-64
2022/08/04 01:40:33;;;;;;;;;1.80;1.80;;;;;29.56;39.57;100779.16;5055754;28;46083;-65
2022/08/04 01:43:02;;;;;;;;;1.00;1.00;;;;;29.55;39.54;100772.03;5056609;28;45404;-65
2022/08/04 01:45:28;;;;;;;;;2.40;2.00;;;;;29.54;39.44;100775.75;5059187;28;45363;-65
2022/08/04 01:47:55;;;;;;;;;0.75;0.75;;;;;29.48;39.78;100768.09;5056625;28;45393;-65
2022/08/04 01:50:22;;;;;;;;;1.00;1.00;;;;;29.51;39.39;100773.25;5058859;28;45466;-65
2022/08/04 01:52:52;;;;;;;;;1.00;1.00;;;;;29.47;39.97;100774.50;5059816;28;45639;-66
2022/08/04 01:55:18;;;;;;;;;2.00;2.00;;;;;29.44;39.80;100771.16;5055527;28;45453;-66
2022/08/04 01:57:46;;;;;;;;;1.50;1.50;;;;;29.41;39.72;100763.31;5055348;28;45494;-67
2022/08/04 02:00:16;;;;;;;;;1.50;1.50;;;;;29.42;39.87;100767.72;5054711;28;45577;-65
2022/08/04 02:02:44;;;;;;;;;1.00;1.00;;;;;29.36;39.97;100766.34;5057425;28;45545;-66
2022/08/04 02:05:11;;;;;;;;;1.50;1.50;;;;;29.37;40.11;100768.06;5059524;28;45423;-66
2022/08/04 02:07:56;;;;;;;;;1.00;1.00;;;;;29.31;39.75;100763.16;5041028;28;45359;-65
2022/08/04 02:11:08;;;;;;;;;1.00;1.00;;;;;29.33;39.96;100759.34;5055011;28;45579;-65
2022/08/04 02:13:57;;;;;;;;;3.00;2.00;;;;;29.33;40.13;100758.50;5051124;28;45534;-65
2022/08/04 02:16:42;;;;;;;;;3.00;1.40;;;;;29.33;39.64;100753.09;5047585;28;45453;-65
2022/08/04 02:19:23;;;;;;;;;1.00;1.00;;;;;29.33;40.19;100755.81;5040225;28;45405;-66
2022/08/04 02:21:56;;;;;;;;;1.00;1.00;;;;;29.33;40.37;100767.44;5039883;28;45520;-65
2022/08/04 02:24:26;;;;;;;;;3.00;1.40;;;;;29.24;40.03;100754.66;5040543;28;45801;-64
2022/08/04 02:26:55;;;;;;;;;2.00;2.00;;;;;29.30;40.06;100764.09;5040278;28;45527;-66
2022/08/04 02:29:41;;;;;;;;;1.00;1.00;;;;;29.26;40.19;100751.81;5040774;28;45517;-65
2022/08/04 02:32:24;;;;;;;;;1.25;1.25;;;;;29.15;40.98;100742.72;5023810;28;46597;-65
2022/08/04 02:35:05;;;;;;;;;2.00;2.00;;;;;29.16;40.91;100740.88;5046029;28;45398;-65
2022/08/04 02:37:32;;;;;;;;;1.50;1.50;;;;;29.09;40.71;100728.84;5048018;28;45645;-66
2022/08/04 02:40:00;;;;;;;;;4.00;2.00;;;;;28.93;40.79;100710.25;5046995;28;45473;-65
2022/08/04 02:42:28;;;;;;;;;3.00;1.25;;;;;29.12;40.37;100740.28;5046742;28;45536;-65
2022/08/04 02:44:57;;;;;;;;;1.80;1.80;;;;;29.03;40.68;100726.59;5047471;28;45474;-65
2022/08/04 02:47:25;;;;;;;;;2.00;1.80;;;;;29.12;40.48;100747.50;5044290;28;45592;-65
2022/08/04 02:49:51;;;;;;;;;3.00;1.00;;;;;29.07;40.72;100749.66;5022161;28;45579;-64
2022/08/04 02:52:20;;;;;;;;;2.00;2.00;;;;;28.97;40.96;100727.91;5045093;28;45609;-66
2022/08/04 02:54:50;;;;;;;;;1.80;1.00;;;;;28.80;40.61;100713.00;5039736;28;45525;-66
2022/08/04 02:57:18;;;;;;;;;2.80;1.40;;;;;29.02;40.77;100750.00;5044557;28;45638;-66
2022/08/04 03:00:13;;;;;;;;;3.00;2.00;;;;;28.91;40.82;100744.56;5050255;28;45467;-66
2022/08/04 03:02:57;;;;;;;;;1.75;1.75;;;;;28.96;40.94;100762.09;5054438;28;46235;-66
2022/08/04 03:05:46;;;;;;;;;1.60;1.60;;;;;28.95;40.78;100771.19;5054635;28;45470;-66
2022/08/04 03:08:31;;;;;;;;;2.25;1.00;;;;;28.91;40.78;100766.13;5044639;28;45914;-66
2022/08/04 03:11:15;;;;;;;;;3.00;2.00;;;;;28.86;41.02;100760.22;5058741;28;45692;-65
2022/08/04 03:13:43;;;;;;;;;2.00;2.00;;;;;28.90;41.07;100759.00;5055547;28;45541;-64
2022/08/04 03:16:24;;;;;;;;;2.00;2.00;;;;;28.74;40.77;100746.66;5053197;28;45528;-65
2022/08/04 03:19:19;;;;;;;;;2.00;2.00;;;;;28.86;41.16;100765.63;5058643;28;45474;-65
2022/08/04 03:22:22;;;;;;;;;1.25;1.25;;;;;28.85;41.21;100766.56;5058476;28;45317;-65
2022/08/04 03:25:25;;;;;;;;;1.50;1.50;;;;;28.83;41.10;100766.69;5053678;28;45857;-66
2022/08/04 03:28:11;;;;;;;;;3.00;2.00;;;;;28.80;41.31;100760.66;5054706;28;45414;-65
2022/08/04 03:30:58;;;;;;;;;1.75;1.75;;;;;28.78;41.11;100757.22;5054448;28;45417;-66
2022/08/04 03:33:44;;;;;;;;;3.25;2.75;;;;;28.75;41.12;100763.69;5054481;28;45352;-66
2022/08/04 03:36:12;;;;;;;;;1.50;1.50;;;;;28.74;41.28;100753.91;5056223;28;46750;-66
2022/08/04 03:38:56;;;;;;;;;3.00;3.00;;;;;28.73;41.32;100752.16;5054096;28;45454;-65
2022/08/04 03:42:03;;;;;;;;;3.80;1.80;;;;;28.69;41.25;100748.84;5057670;28;45413;-65
2022/08/04 03:45:11;;;;;;;;;2.00;2.00;;;;;28.58;41.07;100738.00;5018648;28;45844;-65
2022/08/04 03:47:52;;;;;;;;;1.00;1.00;;;;;28.66;41.46;100756.28;5038622;28;45761;-66
2022/08/04 03:54:05;;;;;;;;;3.00;1.25;;;;;28.61;41.25;100755.78;5041463;28;45461;-66
2022/08/04 03:56:57;;;;;;;;;2.00;2.00;;;;;28.52;41.34;100752.78;5020277;28;45568;-66
2022/08/04 03:59:38;;;;;;;;;4.00;1.25;;;;;28.58;41.51;100753.31;5053329;28;46032;-66
2022/08/04 04:02:41;;;;;;;;;1.50;1.50;;;;;28.56;41.35;100750.72;5040400;28;45316;-65
2022/08/04 04:05:09;;;;;;;;;1.00;1.00;;;;;28.55;41.74;100743.63;5053566;28;45488;-66
2022/08/04 04:07:50;;;;;;;;;2.00;2.00;;;;;28.52;41.86;100738.44;5053636;28;45414;-67
2022/08/04 04:10:51;;;;;;;;;1.00;1.00;;;;;28.49;41.63;100733.28;5053102;28;46232;-65
2022/08/04 04:13:44;;;;;;;;;2.00;2.00;;;;;28.40;42.21;100715.91;5053172;28;45380;-65
2022/08/04 04:16:31;;;;;;;;;2.50;2.50;;;;;28.36;42.12;100732.41;5053748;28;45434;-66
2022/08/04 04:19:25;;;;;;;;;3.75;2.50;;;;;28.38;42.00;100750.22;5051968;28;45561;-66
2022/08/04 04:21:59;;;;;;;;;2.50;2.50;;;;;28.40;41.78;100760.84;5052553;28;45709;-65
2022/08/04 04:25:02;;;;;;;;;2.00;2.00;;;;;28.39;41.82;100761.84;5052963;28;45525;-67
2022/08/04 04:27:49;;;;;;;;;3.00;1.50;;;;;28.33;42.02;100774.78;5057866;28;45319;-64
2022/08/04 04:30:36;;;;;;;;;1.25;1.25;;;;;28.34;42.07;100786.41;5056319;28;45395;-65
2022/08/04 04:33:26;;;;;;;;;2.00;2.00;;;;;28.32;41.94;100777.56;5051564;28;47137;-65
2022/08/04 04:36:35;;;;;;;;;4.00;1.60;;;;;28.33;42.10;100773.91;5053301;28;45741;-64
2022/08/04 04:39:27;;;;;;;;;2.50;2.00;;;;;28.32;42.10;100772.19;5057068;28;45588;-65
2022/08/04 04:42:17;;;;;;;;;2.75;2.00;;;;;28.25;41.91;100761.00;5061294;28;45399;-67
2022/08/04 04:45:09;;;;;;;;;1.00;1.00;;;;;28.29;42.18;100791.28;5044435;28;46111;-65
2022/08/04 04:47:50;;;;;;;;;1.40;1.40;;;;;28.29;41.88;100791.28;5056350;28;45501;-66
2022/08/04 04:50:28;;;;;;;;;2.75;1.75;;;;;28.25;42.01;100798.69;5060428;28;45376;-65
2022/08/04 04:53:03;;;;;;;;;1.75;1.75;;;;;28.26;41.99;100816.59;5058512;28;45710;-64
2022/08/04 04:55:42;;;;;;;;;3.00;2.00;;;;;28.28;42.17;100814.63;5056841;28;45484;-65
2022/08/04 04:58:12;;;;;;;;;1.00;1.00;;;;;28.25;42.49;100803.22;5042047;28;45515;-65
2022/08/04 05:01:15;;;;;;;;;1.00;1.00;;;;;28.24;42.56;100810.44;5056866;28;45517;-66
2022/08/04 05:03:59;;;;;;;;;4.25;2.00;;;;;28.25;42.44;100816.69;5056863;28;45284;-66
2022/08/04 05:06:31;;;;;;;;;2.50;1.75;;;;;28.24;42.43;100817.69;5056749;28;45512;-67
2022/08/04 05:09:22;;;;;;;;;2.75;2.75;;;;;28.17;42.60;100811.00;5056987;28;45450;-65
2022/08/04 05:12:17;;;;;;;;;2.50;2.25;;;;;28.13;42.57;100804.97;5059176;28;45417;-65
2022/08/04 05:14:49;;;;;;;;;1.75;1.75;;;;;28.03;42.67;100803.91;5043890;28;45562;-65
2022/08/04 05:17:33;;;;;;;;;1.75;1.75;;;;;28.01;42.78;100817.44;5056537;28;45986;-67
2022/08/04 05:20:07;;;;;;;;;2.25;2.25;;;;;28.05;42.79;100829.75;5059446;28;45379;-66
2022/08/04 05:22:46;;;;;;;;;16.33;16.33;;;;;28.06;43.03;100809.06;5059793;28;45592;-64
2022/08/04 05:25:29;;;;;;;;;9.25;9.25;;;;;28.02;42.87;100808.38;5055657;28;45525;-63
2022/08/04 05:28:04;;;;;;;;;26.00;24.67;;;;;27.91;42.79;100793.00;5045809;28;46536;-66
2022/08/04 05:30:35;;;;;;;;;18.33;17.00;;;;;27.98;42.82;100814.97;5058831;28;45289;-66
2022/08/04 05:33:08;;;;;;;;;9.50;9.50;;;;;28.02;42.48;100821.84;5057314;28;45398;-65
2022/08/04 05:35:40;;;;;;;;;6.75;6.75;;;;;28.05;42.33;100832.44;5054752;28;45383;-65
2022/08/04 05:38:09;;;;;;;;;4.25;4.25;;;;;28.08;42.58;100839.44;5045880;28;45382;-65
2022/08/04 05:40:38;;;;;;;;;3.25;3.25;;;;;28.07;42.29;100843.06;5038407;28;45381;-64
2022/08/04 05:43:05;;;;;;;;;4.00;2.75;;;;;28.07;42.53;100851.16;5054269;28;45610;-63
2022/08/04 05:45:34;;;;;;;;;1.75;1.75;;;;;28.05;42.26;100847.72;5050131;28;45466;-65
2022/08/04 05:48:06;;;;;;;;;1.75;1.75;;;;;28.05;42.13;100837.81;5049282;28;46175;-64
2022/08/04 05:50:33;;;;;;;;;6.00;3.00;;;;;27.97;42.45;100832.09;5058124;28;45423;-64
2022/08/04 05:53:02;;;;;;;;;3.00;2.00;;;;;27.82;42.27;100807.06;5044066;28;45493;-64
2022/08/04 05:55:29;;;;;;;;;3.00;2.25;;;;;28.04;42.09;100837.91;5054621;28;45474;-65
2022/08/04 05:58:00;;;;;;;;;5.25;3.00;;;;;28.04;42.01;100844.16;5048640;28;46631;-65
2022/08/04 06:00:28;;;;;;;;;3.50;3.50;;;;;28.06;42.03;100838.66;5048345;28;45715;-66
2022/08/04 06:02:56;;;;;;;;;2.00;2.00;;;;;28.08;41.79;100836.72;5048208;28;45613;-64
2022/08/04 06:05:23;;;;;;;;;2.25;2.25;;;;;28.03;42.20;100812.81;5052001;28;45430;-65
2022/08/04 06:07:49;;;;;;;;;2.25;2.25;;;;;28.16;41.83;100814.66;5047503;28;45543;-63
2022/08/04 06:10:15;;;;;;;;;2.50;2.25;;;;;28.09;41.57;100798.06;5029038;28;45856;-65
2022/08/04 06:12:46;;;;;;;;;1.25;1.25;;;;;28.34;41.44;100822.28;5031425;28;45541;-65
2022/08/04 06:15:17;;;;;;;;;3.00;2.00;;;;;28.43;41.22;100822.63;5049356;28;45587;-65
2022/08/04 06:17:58;;;;;;;;;3.00;2.00;;;;;28.53;41.30;100821.00;5052983;28;46355;-65
2022/08/04 06:20:31;;;;;;;;;2.20;2.20;;;;;28.62;41.29;100824.88;5054264;28;45511;-64
2022/08/04 06:23:03;;;;;;;;;2.50;2.00;;;;;28.71;40.76;100825.06;5026626;28;45565;-66
2022/08/04 06:25:35;;;;;;;;;2.50;2.00;;;;;28.74;40.90;100824.84;5042750;28;45528;-65
2022/08/04 06:28:05;;;;;;;;;2.00;2.00;;;;;28.78;40.59;100825.44;5043294;28;46021;-66
2022/08/04 06:30:32;;;;;;;;;2.00;2.00;;;;;28.75;40.83;100823.84;5049494;28;45332;-66
2022/08/04 06:33:02;;;;;;;;;3.00;3.00;;;;;28.69;40.32;100815.38;5051974;28;45564;-65
2022/08/04 06:35:29;;;;;;;;;2.75;2.75;;;;;28.70;40.39;100820.63;5045582;28;45808;-66
2022/08/04 06:37:55;;;;;;;;;2.25;2.25;;;;;28.81;40.27;100832.44;5044996;28;45584;-66
2022/08/04 06:40:23;;;;;;;;;2.00;2.00;;;;;28.85;40.21;100834.81;5050791;28;45479;-66
2022/08/04 06:42:51;;;;;;;;;4.50;2.50;;;;;28.92;40.13;100825.31;5042293;28;45492;-66
2022/08/04 06:45:19;;;;;;;;;3.00;3.00;;;;;28.98;40.03;100831.25;5045539;28;45271;-65
2022/08/04 06:47:46;;;;;;;;;3.00;3.00;;;;;29.02;39.81;100847.06;5045992;28;46089;-65
2022/08/04 06:50:12;;;;;;;;;2.00;2.00;;;;;29.01;39.46;100845.34;5046085;28;45472;-66
2022/08/04 06:52:38;;;;;;;;;4.50;2.25;;;;;28.96;39.83;100844.81;5050566;28;45447;-65
2022/08/04 06:55:06;;;;;;;;;4.25;2.25;;;;;28.91;40.04;100853.25;5045583;28;45513;-66
2022/08/04 06:57:39;;;;;;;;;2.25;2.25;;;;;28.90;39.82;100854.22;5031962;28;46317;-67
2022/08/04 07:00:09;;;;;;;;;4.40;2.40;;;;;28.89;39.76;100859.72;5034932;28;45469;-65
2022/08/04 07:02:47;;;;;;;;;4.75;3.50;;;;;28.74;39.91;100848.22;5057005;28;45315;-66
2022/08/04 07:05:13;;;;;;;;;2.25;2.25;;;;;28.92;39.99;100863.03;5054714;28;45555;-65
2022/08/04 07:07:39;;;;;;;;;2.25;2.00;;;;;28.89;39.58;100848.94;5053030;28;45461;-66
2022/08/04 07:10:07;;;;;;;;;2.20;2.20;;;;;28.96;39.61;100859.16;5052980;28;45370;-66
2022/08/04 07:12:33;;;;;;;;;3.00;3.00;;;;;28.98;39.67;100852.81;5053573;28;45544;-66
2022/08/04 07:14:59;;;;;;;;;2.00;1.75;;;;;29.17;39.27;100867.53;5054174;28;45671;-66
2022/08/04 07:17:27;;;;;;;;;3.25;2.00;;;;;29.41;39.01;100869.38;5053241;28;45554;-66
2022/08/04 07:19:53;;;;;;;;;4.00;3.00;;;;;29.60;38.33;100856.22;5050291;28;45513;-65
2022/08/04 07:22:19;;;;;;;;;4.00;2.25;;;;;29.94;38.41;100863.59;5047280;28;46111;-66
2022/08/04 07:24:45;;;;;;;;;2.50;2.50;;;;;30.13;38.10;100876.50;5043912;28;45485;-66
2022/08/04 07:27:10;;;;;;;;;2.50;2.50;;;;;30.29;37.73;100879.75;5052439;28;45482;-66
2022/08/04 07:29:37;;;;;;;;;4.00;3.25;;;;;30.35;37.64;100884.69;5043718;28;45523;-65
2022/08/04 07:32:04;;;;;;;;;2.40;2.40;;;;;30.26;37.84;100887.28;5039598;28;45377;-67
2022/08/04 07:34:31;;;;;;;;;4.50;2.50;;;;;30.20;37.78;100889.41;5042795;28;45552;-66
2022/08/04 07:37:00;;;;;;;;;3.00;2.25;;;;;30.22;37.62;100887.44;5050844;28;46670;-66
2022/08/04 07:39:30;;;;;;;;;2.20;2.00;;;;;30.07;37.54;100879.72;5029202;28;46442;-65
2022/08/04 07:41:58;;;;;;;;;3.00;3.00;;;;;30.15;38.02;100893.47;5025620;28;45427;-66
2022/08/04 07:44:25;;;;;;;;;1.25;1.25;;;;;30.20;36.98;100886.72;5051708;28;45490;-66
2022/08/04 07:46:51;;;;;;;;;3.40;1.00;;;;;30.23;37.18;100896.41;5042439;28;47069;-67
2022/08/04 07:49:17;;;;;;;;;2.00;2.00;;;;;30.00;37.91;100874.78;5042063;28;45507;-66
2022/08/04 07:51:43;;;;;;;;;2.00;2.00;;;;;30.08;37.45;100889.53;5029239;28;46976;-66
2022/08/04 07:54:09;;;;;;;;;4.50;3.00;;;;;29.98;38.20;100890.22;5047279;28;45661;-66
2022/08/04 07:56:37;;;;;;;;;2.00;2.00;;;;;29.87;38.24;100892.03;5041002;28;46237;-66
2022/08/04 07:59:05;;;;;;;;;2.60;2.60;;;;;29.74;38.27;100902.94;5032820;28;45557;-68
2022/08/04 08:01:30;;;;;;;;;2.00;2.00;;;;;29.66;38.51;100902.59;5047596;28;45736;-67
2022/08/04 08:03:58;;;;;;;;;2.25;2.25;;;;;29.58;39.46;100904.03;5045409;28;45460;-66
2022/08/04 08:06:23;;;;;;;;;3.00;1.00;;;;;29.44;39.53;100911.44;5027914;28;45651;-68
2022/08/04 08:08:49;;;;;;;;;2.25;2.00;;;;;29.35;40.20;100919.28;5042882;28;45922;-67
2022/08/04 08:11:16;;;;;;;;;3.00;1.25;;;;;29.30;40.11;100917.88;5051318;28;45727;-66
2022/08/04 08:13:43;;;;;;;;;3.25;2.75;;;;;29.21;40.97;100921.25;5047993;28;45531;-66
2022/08/04 08:16:10;;;;;;;;;4.00;2.00;;;;;29.11;43.14;100915.66;5051812;28;45526;-66
2022/08/04 08:18:36;;;;;;;;;4.00;2.40;;;;;29.01;42.12;100926.22;5048523;28;45500;-66
2022/08/04 08:21:01;;;;;;;;;3.25;3.25;;;;;28.93;42.14;100929.50;5042840;28;45533;-66
2022/08/04 08:23:30;;;;;;;;;3.00;3.00;;;;;28.94;41.47;100928.50;5053490;28;45328;-65
2022/08/04 08:25:58;;;;;;;;;2.00;2.00;;;;;28.93;41.45;100942.13;5046116;28;45740;-66
2022/08/04 08:28:24;;;;;;;;;2.40;2.40;;;;;28.86;42.09;100932.75;5046670;28;45485;-66
2022/08/04 08:30:50;;;;;;;;;4.00;2.00;;;;;28.75;43.29;100926.25;5042551;28;45521;-66
2022/08/04 08:33:16;;;;;;;;;4.25;2.25;;;;;28.72;42.64;100925.63;5049043;28;45382;-66
2022/08/04 08:35:42;;;;;;;;;3.00;3.00;;;;;28.68;42.78;100913.34;5026937;28;46814;-65
2022/08/04 08:38:13;;;;;;;;;3.50;2.50;;;;;28.63;43.41;100927.16;5042913;28;45762;-65
2022/08/04 08:40:52;;;;;;;;;3.50;2.50;;;;;28.63;43.06;100934.38;5043796;28;45675;-66
2022/08/04 08:43:24;;;;;;;;;4.25;2.50;;;;;28.66;42.61;100943.09;5046608;28;45768;-65
2022/08/04 08:46:14;;;;;;;;;2.25;2.25;;;;;28.61;44.20;100939.00;5045461;28;45487;-64
2022/08/04 08:48:47;;;;;;;;;4.25;3.75;;;;;28.42;43.69;100942.09;5045627;28;45330;-66
2022/08/04 08:51:44;;;;;;;;;2.00;2.00;;;;;28.38;43.79;100919.91;5040924;28;45340;-66
2022/08/04 08:54:31;;;;;;;;;2.50;2.00;;;;;28.48;44.14;100928.25;5031826;28;45518;-66
2022/08/04 08:57:35;;;;;;;;;2.00;2.00;;;;;28.34;44.00;100931.88;5045346;28;47690;-66
2022/08/04 09:00:26;;;;;;;;;3.25;3.00;;;;;28.36;43.76;100929.03;5010850;28;45337;-66
2022/08/04 09:03:17;;;;;;;;;2.00;1.75;;;;;28.22;44.21;100898.56;5035181;28;45543;-66
2022/08/04 09:05:55;;;;;;;;;3.00;1.75;;;;;28.45;43.65;100917.63;5045634;28;45587;-66
2022/08/04 09:08:26;;;;;;;;;2.25;2.25;;;;;28.50;43.58;100923.63;5056300;28;46623;-66
2022/08/04 09:11:03;;;;;;;;;1.50;1.50;;;;;28.41;43.19;100900.84;5056740;28;45461;-66
2022/08/04 09:13:45;;;;;;;;;1.25;1.25;;;;;28.62;43.49;100928.13;5054696;28;45585;-65
2022/08/04 09:16:13;;;;;;;;;4.25;1.25;;;;;28.74;43.11;100935.34;5042160;28;45491;-66
2022/08/04 09:18:59;;;;;;;;;3.00;1.50;;;;;28.87;43.11;100935.31;5036069;28;46101;-67
2022/08/04 09:21:50;;;;;;;;;3.20;2.00;;;;;28.96;42.75;100931.09;5037833;28;45615;-66
2022/08/04 09:24:34;;;;;;;;;3.25;2.00;;;;;29.05;42.70;100959.25;5042516;28;45502;-66
2022/08/04 09:27:04;;;;;;;;;4.00;2.00;;;;;29.08;42.52;100957.19;5053406;28;45514;-66
2022/08/04 09:29:42;;;;;;;;;2.00;1.25;;;;;29.25;42.54;100957.81;5047686;28;45561;-66
2022/08/04 09:32:39;;;;;;;;;1.60;1.00;;;;;29.28;42.13;100934.19;5043520;28;45520;-66
2022/08/04 09:35:37;;;;;;;;;1.25;1.00;;;;;29.43;42.31;100959.16;5048133;28;45517;-65
2022/08/04 09:38:25;;;;;;;;;2.00;1.00;;;;;29.50;42.12;100943.38;5043367;28;45426;-65
2022/08/04 09:41:06;;;;;;;;;2.25;2.00;;;;;29.53;41.95;100940.44;5046285;28;45607;-65
2022/08/04 09:43:49;;;;;;;;;1.60;1.60;;;;;29.66;41.66;100943.97;5052293;28;45303;-66
2022/08/04 09:46:36;;;;;;;;;4.00;3.00;;;;;29.82;41.48;100962.59;5046788;28;46059;-66
2022/08/04 09:49:27;;;;;;;;;3.00;2.00;;;;;29.90;41.26;100965.59;5047813;28;45237;-66
2022/08/04 09:51:57;;;;;;;;;3.75;2.50;;;;;30.05;41.17;100965.38;5041373;28;46071;-65
2022/08/04 09:54:55;;;;;;;;;1.60;1.40;;;;;30.17;40.52;100964.44;5048709;28;45875;-65
2022/08/04 09:57:33;;;;;;;;;3.20;2.20;;;;;30.24;40.68;100963.00;5043099;28;45565;-68
2022/08/04 10:00:12;;;;;;;;;4.00;2.00;;;;;30.34;40.24;100953.22;5051598;28;45551;-66
2022/08/04 10:03:04;;;;;;;;;1.75;1.75;;;;;30.30;40.16;100959.84;5054442;28;45438;-67
2022/08/04 10:05:54;;;;;;;;;2.20;1.20;;;;;30.16;41.00;100946.50;5039906;28;46834;-66
2022/08/04 10:08:38;;;;;;;;;2.00;2.00;;;;;29.98;41.23;100946.94;5055737;28;45561;-67
2022/08/04 10:11:15;;;;;;;;;1.00;1.00;;;;;29.80;41.19;100942.94;5054390;28;45555;-68
2022/08/04 10:14:05;;;;;;;;;1.00;1.00;;;;;29.78;41.63;100947.59;5054499;28;46387;-67
2022/08/04 10:16:31;;;;;;;;;1.00;1.00;;;;;29.78;41.42;100945.78;5052502;28;45487;-65
2022/08/04 10:19:14;;;;;;;;;2.00;2.00;;;;;29.83;41.11;100947.25;5043194;28;45470;-65
2022/08/04 10:21:58;;;;;;;;;2.50;2.00;;;;;29.95;40.86;100946.34;5042016;28;45450;-67
2022/08/04 10:24:42;;;;;;;;;1.50;1.50;;;;;30.11;41.06;100946.88;5052543;28;45541;-66
2022/08/04 10:27:58;;;;;;;;;2.80;2.00;;;;;30.30;40.42;100953.56;5045892;28;45626;-66
2022/08/04 10:30:31;;;;;;;;;20.67;18.67;;;;;30.42;40.35;100950.78;5047718;28;45564;-65
2022/08/04 10:33:29;;;;;;;;;14.75;12.50;;;;;30.76;39.55;100949.97;5027824;28;45714;-66
2022/08/04 10:36:05;;;;;;;;;8.00;7.25;;;;;31.06;39.36;100946.66;5051004;28;47718;-66
2022/08/04 10:38:44;;;;;;;;;6.60;5.20;;;;;31.21;39.10;100948.13;5049848;28;45391;-66
2022/08/04 10:41:32;;;;;;;;;3.80;3.40;;;;;31.36;38.71;100935.16;5052455;28;45485;-65
2022/08/04 10:44:22;;;;;;;;;3.00;3.00;;;;;31.44;38.79;100939.97;5055120;28;45458;-65
2022/08/04 10:46:57;;;;;;;;;6.00;3.00;;;;;31.47;38.22;100928.91;5050856;28;45531;-65
2022/08/04 10:49:42;;;;;;;;;2.40;1.60;;;;;31.46;38.70;100928.06;5050261;28;45382;-66
2022/08/04 10:52:22;;;;;;;;;2.00;2.00;;;;;31.39;39.01;100917.81;5046004;28;45518;-65
2022/08/04 10:55:04;;;;;;;;;1.50;1.50;;;;;31.43;38.40;100928.28;5049208;28;45376;-65
2022/08/04 10:57:50;;;;;;;;;3.80;2.20;;;;;31.42;38.36;100915.75;5042654;28;45529;-66
2022/08/04 11:00:23;;;;;;;;;1.40;1.40;;;;;31.54;38.75;100910.31;5035979;28;45825;-66
2022/08/04 11:02:49;;;;;;;;;2.80;2.80;;;;;31.59;38.25;100913.50;5043783;28;45525;-66
2022/08/04 11:05:53;;;;;;;;;2.25;2.25;;;;;31.67;38.46;100927.22;5046340;28;45616;-66
2022/08/04 11:08:46;;;;;;;;;2.00;2.00;;;;;31.52;38.04;100923.13;5047036;28;45342;-66
2022/08/04 11:11:31;;;;;;;;;2.20;2.20;;;;;31.59;37.97;100933.28;5050313;28;45661;-67
2022/08/04 11:14:02;;;;;;;;;2.60;2.60;;;;;31.71;37.69;100934.13;5052016;28;45604;-66
2022/08/04 11:16:43;;;;;;;;;2.50;2.00;;;;;31.76;38.09;100929.16;5050296;28;45478;-65
2022/08/04 11:19:38;;;;;;;;;1.60;1.00;;;;;31.85;37.43;100932.94;5052997;28;46031;-66
2022/08/04 11:22:04;;;;;;;;;3.20;2.00;;;;;31.94;37.57;100924.03;5036123;28;45538;-67
2022/08/04 11:24:43;;;;;;;;;3.00;1.60;;;;;31.99;37.62;100929.97;5044218;28;45397;-66
2022/08/04 11:27:14;;;;;;;;;1.40;1.40;;;;;32.03;37.20;100930.53;5041871;28;45534;-67
2022/08/04 11:29:52;;;;;;;;;1.40;1.40;;;;;32.15;37.15;100928.63;5040712;28;45431;-66
2022/08/04 11:32:25;;;;;;;;;1.20;1.00;;;;;32.08;37.22;100912.91;5052186;28;46550;-66
2022/08/04 11:34:58;;;;;;;;;1.40;1.40;;;;;32.35;37.10;100927.78;5045734;28;45339;-66
2022/08/04 11:38:13;;;;;;;;;1.20;1.20;;;;;32.51;36.40;100925.47;5047100;28;45431;-66
2022/08/04 11:40:42;;;;;;;;;1.00;1.00;;;;;32.76;36.28;100939.56;5007205;28;45466;-65
2022/08/04 11:43:15;;;;;;;;;2.40;0.80;;;;;32.89;35.84;100928.47;5045976;28;45544;-66
2022/08/04 11:45:55;;;;;;;;;2.00;2.00;;;;;33.00;35.60;100925.66;5049804;28;45510;-67
2022/08/04 11:48:31;;;;;;;;;2.60;1.40;;;;;33.15;35.51;100940.59;5053849;28;45627;-66
2022/08/04 11:51:04;;;;;;;;;2.00;1.00;;;;;33.12;35.58;100921.88;5055356;28;45438;-65
2022/08/04 11:53:33;;;;;;;;;1.60;1.20;;;;;33.22;35.14;100924.63;5047131;28;45339;-65
2022/08/04 11:56:03;;;;;;;;;1.20;1.20;;;;;33.38;34.88;100935.78;5048680;28;45788;-65
2022/08/04 11:58:29;;;;;;;;;4.60;3.00;;;;;33.50;34.80;100932.94;5051918;28;45796;-65
2022/08/04 12:01:23;;;;;;;;;3.00;3.00;;;;;33.64;34.60;100934.44;5048534;28;45578;-65
2022/08/04 12:04:09;;;;;;;;;3.40;3.40;;;;;33.75;34.60;100942.44;5030272;28;45556;-65
2022/08/04 12:06:56;;;;;;;;;2.40;2.40;;;;;33.76;34.21;100944.16;5046592;28;45366;-64
2022/08/04 12:09:45;;;;;;;;;2.00;2.00;;;;;33.84;34.61;100938.00;5032423;28;45482;-65
2022/08/04 12:12:29;;;;;;;;;4.00;2.00;;;;;33.87;34.67;100938.56;5052437;28;46911;-65
2022/08/04 12:14:59;;;;;;;;;6.00;3.00;;;;;33.87;34.28;100933.16;5048978;28;45471;-64
2022/08/04 12:17:33;;;;;;;;;4.40;3.60;;;;;33.66;34.58;100927.84;5036524;28;45770;-64